sensor_id;sensor_type;location;lat;lon;timestamp;P1;durP1;ratioP1;P2;durP2;ratioP2
18503;SDS011;9381;54.244;10.074;2022-10-16T00:02:36;26.20;;;15.07;;
18503;SDS011;9381;54.244;10.074;2022-10-16T00:07:36;24.02;;;14.02;;
18503;SDS011;9381;54.244;10.074;2022-10-16T00:12:36;24.40;;;13.57;;
18503;SDS011;9381;54.244;10.074;2022-10-16T00:17:36;21.73;;;13.57;;
18503;SDS011;9381;54.244;10.074;2022-10-16T00:22:37;22.53;;;13.17;;
18503;SDS011;9381;54.244;10.074;2022-10-16T00:27:37;19.98;;;12.80;;
18503;SDS011;9381;54.244;10.074;2022-10-16T00:32:37;16.40;;;12.77;;
18503;SDS011;9381;54.244;10.074;2022-10-16T00:37:38;16.48;;;11.60;;
18503;SDS011;9381;54.244;10.074;2022-10-16T00:42:38;16.70;;;11.88;;
18503;SDS011;9381;54.244;10.074;2022-10-16T00:47:39;22.30;;;11.50;;
18503;SDS011;9381;54.244;10.074;2022-10-16T00:52:46;17.57;;;11.43;;
18503;SDS011;9381;54.244;10.074;2022-10-16T00:57:48;17.50;;;10.77;;
18503;SDS011;9381;54.244;10.074;2022-10-16T01:02:51;20.00;;;11.97;;
18503;SDS011;9381;54.244;10.074;2022-10-16T01:08:00;17.57;;;11.27;;
18503;SDS011;9381;54.244;10.074;2022-10-16T01:13:12;18.93;;;11.07;;
18503;SDS011;9381;54.244;10.074;2022-10-16T01:18:23;14.77;;;9.57;;
18503;SDS011;9381;54.244;10.074;2022-10-16T01:23:38;18.37;;;10.03;;
18503;SDS011;9381;54.244;10.074;2022-10-16T01:29:41;16.93;;;10.07;;
18503;SDS011;9381;54.244;10.074;2022-10-16T01:34:22;15.07;;;10.70;;
18503;SDS011;9381;54.244;10.074;2022-10-16T01:39:32;18.67;;;11.33;;
18503;SDS011;9381;54.244;10.074;2022-10-16T01:44:35;16.53;;;10.33;;
18503;SDS011;9381;54.244;10.074;2022-10-16T01:49:38;14.47;;;10.53;;
18503;SDS011;9381;54.244;10.074;2022-10-16T01:54:40;16.47;;;10.60;;
18503;SDS011;9381;54.244;10.074;2022-10-16T01:59:45;14.37;;;10.17;;
18503;SDS011;9381;54.244;10.074;2022-10-16T02:04:49;15.23;;;10.23;;
18503;SDS011;9381;54.244;10.074;2022-10-16T02:09:54;15.00;;;10.67;;
18503;SDS011;9381;54.244;10.074;2022-10-16T02:14:55;15.47;;;10.00;;
18503;SDS011;9381;54.244;10.074;2022-10-16T02:19:55;15.20;;;10.18;;
18503;SDS011;9381;54.244;10.074;2022-10-16T02:35:33;20.23;;;9.57;;
18503;SDS011;9381;54.244;10.074;2022-10-16T02:40:34;19.13;;;10.13;;
18503;SDS011;9381;54.244;10.074;2022-10-16T02:45:35;14.93;;;9.80;;
18503;SDS011;9381;54.244;10.074;2022-10-16T02:50:36;14.20;;;9.60;;
18503;SDS011;9381;54.244;10.074;2022-10-16T02:55:36;19.33;;;9.70;;
18503;SDS011;9381;54.244;10.074;2022-10-16T03:00:36;14.02;;;8.45;;
18503;SDS011;9381;54.244;10.074;2022-10-16T03:05:36;13.27;;;8.18;;
18503;SDS011;9381;54.244;10.074;2022-10-16T03:10:37;10.02;;;7.18;;
18503;SDS011;9381;54.244;10.074;2022-10-16T03:15:37;10.55;;;6.63;;
18503;SDS011;9381;54.244;10.074;2022-10-16T03:20:37;12.25;;;6.68;;
18503;SDS011;9381;54.244;10.074;2022-10-16T03:25:37;14.02;;;7.07;;
18503;SDS011;9381;54.244;10.074;2022-10-16T03:30:38;12.70;;;7.27;;
18503;SDS011;9381;54.244;10.074;2022-10-16T03:35:39;10.07;;;5.67;;
18503;SDS011;9381;54.244;10.074;2022-10-16T03:40:39;9.05;;;4.90;;
18503;SDS011;9381;54.244;10.074;2022-10-16T03:45:40;7.28;;;4.15;;
18503;SDS011;9381;54.244;10.074;2022-10-16T03:50:40;10.15;;;4.55;;
18503;SDS011;9381;54.244;10.074;2022-10-16T03:55:41;6.07;;;4.10;;
18503;SDS011;9381;54.244;10.074;2022-10-16T04:00:43;9.83;;;3.97;;
18503;SDS011;9381;54.244;10.074;2022-10-16T04:05:44;8.33;;;3.50;;
18503;SDS011;9381;54.244;10.074;2022-10-16T04:10:44;9.07;;;3.57;;
18503;SDS011;9381;54.244;10.074;2022-10-16T04:15:45;6.40;;;3.57;;
18503;SDS011;9381;54.244;10.074;2022-10-16T04:20:46;8.93;;;3.23;;
18503;SDS011;9381;54.244;10.074;2022-10-16T04:25:46;11.48;;;3.17;;
18503;SDS011;9381;54.244;10.074;2022-10-16T04:30:46;6.30;;;2.90;;
18503;SDS011;9381;54.244;10.074;2022-10-16T04:35:46;9.63;;;3.20;;
18503;SDS011;9381;54.244;10.074;2022-10-16T04:40:47;3.97;;;2.70;;
18503;SDS011;9381;54.244;10.074;2022-10-16T04:45:47;7.13;;;3.33;;
18503;SDS011;9381;54.244;10.074;2022-10-16T04:50:47;8.63;;;3.00;;
18503;SDS011;9381;54.244;10.074;2022-10-16T04:55:48;7.87;;;3.17;;
18503;SDS011;9381;54.244;10.074;2022-10-16T05:00:48;6.25;;;2.67;;
18503;SDS011;9381;54.244;10.074;2022-10-16T05:05:48;6.55;;;2.97;;
18503;SDS011;9381;54.244;10.074;2022-10-16T05:10:48;8.18;;;2.80;;
18503;SDS011;9381;54.244;10.074;2022-10-16T05:15:49;5.00;;;2.58;;
18503;SDS011;9381;54.244;10.074;2022-10-16T05:20:49;6.30;;;2.80;;
18503;SDS011;9381;54.244;10.074;2022-10-16T05:25:53;7.40;;;2.53;;
18503;SDS011;9381;54.244;10.074;2022-10-16T05:30:55;7.10;;;2.70;;
18503;SDS011;9381;54.244;10.074;2022-10-16T05:35:56;7.03;;;2.67;;
18503;SDS011;9381;54.244;10.074;2022-10-16T05:40:56;5.70;;;3.05;;
18503;SDS011;9381;54.244;10.074;2022-10-16T05:45:58;7.40;;;2.63;;
18503;SDS011;9381;54.244;10.074;2022-10-16T05:51:04;5.73;;;2.63;;
18503;SDS011;9381;54.244;10.074;2022-10-16T05:56:07;7.10;;;2.47;;
18503;SDS011;9381;54.244;10.074;2022-10-16T06:01:11;3.83;;;2.43;;
18503;SDS011;9381;54.244;10.074;2022-10-16T06:06:14;5.93;;;2.50;;
18503;SDS011;9381;54.244;10.074;2022-10-16T06:11:20;6.80;;;2.33;;
18503;SDS011;9381;54.244;10.074;2022-10-16T06:16:25;5.87;;;2.13;;
18503;SDS011;9381;54.244;10.074;2022-10-16T06:21:26;6.70;;;2.33;;
18503;SDS011;9381;54.244;10.074;2022-10-16T06:26:28;9.13;;;2.93;;
18503;SDS011;9381;54.244;10.074;2022-10-16T06:31:29;6.07;;;2.30;;
18503;SDS011;9381;54.244;10.074;2022-10-16T06:36:33;5.93;;;2.13;;
18503;SDS011;9381;54.244;10.074;2022-10-16T06:41:33;4.03;;;2.47;;
18503;SDS011;9381;54.244;10.074;2022-10-16T06:46:33;7.10;;;2.40;;
18503;SDS011;9381;54.244;10.074;2022-10-16T06:51:34;3.30;;;2.00;;
18503;SDS011;9381;54.244;10.074;2022-10-16T06:56:36;2.50;;;1.87;;
18503;SDS011;9381;54.244;10.074;2022-10-16T07:01:36;6.80;;;2.40;;
18503;SDS011;9381;54.244;10.074;2022-10-16T07:06:36;8.05;;;2.72;;
18503;SDS011;9381;54.244;10.074;2022-10-16T07:11:37;6.30;;;2.40;;
18503;SDS011;9381;54.244;10.074;2022-10-16T07:16:39;4.47;;;2.70;;
18503;SDS011;9381;54.244;10.074;2022-10-16T07:21:39;4.72;;;2.75;;
18503;SDS011;9381;54.244;10.074;2022-10-16T07:26:41;7.67;;;3.23;;
18503;SDS011;9381;54.244;10.074;2022-10-16T07:31:43;7.03;;;2.90;;
18503;SDS011;9381;54.244;10.074;2022-10-16T07:36:43;7.07;;;3.10;;
18503;SDS011;9381;54.244;10.074;2022-10-16T07:41:44;3.77;;;2.80;;
18503;SDS011;9381;54.244;10.074;2022-10-16T07:46:44;10.63;;;3.93;;
18503;SDS011;9381;54.244;10.074;2022-10-16T07:51:45;8.73;;;3.60;;
18503;SDS011;9381;54.244;10.074;2022-10-16T07:56:45;6.78;;;3.60;;
18503;SDS011;9381;54.244;10.074;2022-10-16T08:01:45;5.88;;;3.25;;
18503;SDS011;9381;54.244;10.074;2022-10-16T08:06:45;6.55;;;3.40;;
18503;SDS011;9381;54.244;10.074;2022-10-16T08:11:46;6.73;;;3.50;;
18503;SDS011;9381;54.244;10.074;2022-10-16T08:16:46;8.13;;;4.13;;
18503;SDS011;9381;54.244;10.074;2022-10-16T08:21:47;9.50;;;4.70;;
18503;SDS011;9381;54.244;10.074;2022-10-16T08:26:47;8.37;;;4.70;;
18503;SDS011;9381;54.244;10.074;2022-10-16T08:31:48;7.80;;;5.10;;
18503;SDS011;9381;54.244;10.074;2022-10-16T08:36:48;8.23;;;4.68;;
18503;SDS011;9381;54.244;10.074;2022-10-16T08:41:54;9.05;;;5.05;;
18503;SDS011;9381;54.244;10.074;2022-10-16T08:47:20;10.57;;;5.60;;
18503;SDS011;9381;54.244;10.074;2022-10-16T08:52:32;9.73;;;5.63;;
18503;SDS011;9381;54.244;10.074;2022-10-16T08:57:35;7.17;;;4.60;;
18503;SDS011;9381;54.244;10.074;2022-10-16T09:02:39;9.32;;;4.93;;
18503;SDS011;9381;54.244;10.074;2022-10-16T09:13:21;12.10;;;5.57;;
18503;SDS011;9381;54.244;10.074;2022-10-16T09:18:45;10.43;;;5.30;;
18503;SDS011;9381;54.244;10.074;2022-10-16T09:24:15;11.20;;;5.10;;
18503;SDS011;9381;54.244;10.074;2022-10-16T09:29:18;6.63;;;4.00;;
18503;SDS011;9381;54.244;10.074;2022-10-16T09:39:30;9.73;;;4.00;;
18503;SDS011;9381;54.244;10.074;2022-10-16T09:44:46;8.30;;;3.67;;
18503;SDS011;9381;54.244;10.074;2022-10-16T09:49:56;8.50;;;3.90;;
18503;SDS011;9381;54.244;10.074;2022-10-16T09:55:09;7.57;;;4.27;;
18503;SDS011;9381;54.244;10.074;2022-10-16T10:00:15;7.20;;;4.03;;
18503;SDS011;9381;54.244;10.074;2022-10-16T10:05:21;7.90;;;3.57;;
18503;SDS011;9381;54.244;10.074;2022-10-16T10:10:27;9.23;;;4.10;;
18503;SDS011;9381;54.244;10.074;2022-10-16T10:15:33;7.73;;;3.57;;
18503;SDS011;9381;54.244;10.074;2022-10-16T10:20:35;7.17;;;4.00;;
18503;SDS011;9381;54.244;10.074;2022-10-16T10:25:44;8.30;;;3.50;;
18503;SDS011;9381;54.244;10.074;2022-10-16T10:46:32;6.17;;;2.57;;
18503;SDS011;9381;54.244;10.074;2022-10-16T10:56:58;7.03;;;2.30;;
18503;SDS011;9381;54.244;10.074;2022-10-16T11:07:32;6.63;;;2.00;;
18503;SDS011;9381;54.244;10.074;2022-10-16T11:12:38;8.93;;;2.67;;
18503;SDS011;9381;54.244;10.074;2022-10-16T11:17:52;7.97;;;2.13;;
18503;SDS011;9381;54.244;10.074;2022-10-16T11:23:02;6.30;;;2.10;;
18503;SDS011;9381;54.244;10.074;2022-10-16T11:28:14;3.87;;;2.10;;
18503;SDS011;9381;54.244;10.074;2022-10-16T11:33:23;6.23;;;1.97;;
18503;SDS011;9381;54.244;10.074;2022-10-16T11:38:46;11.27;;;2.20;;
18503;SDS011;9381;54.244;10.074;2022-10-16T11:49:32;7.37;;;2.10;;
18503;SDS011;9381;54.244;10.074;2022-10-16T12:05:33;8.33;;;2.00;;
18503;SDS011;9381;54.244;10.074;2022-10-16T12:10:29;11.27;;;2.23;;
18503;SDS011;9381;54.244;10.074;2022-10-16T12:15:37;8.37;;;2.27;;
18503;SDS011;9381;54.244;10.074;2022-10-16T12:20:37;6.88;;;1.65;;
18503;SDS011;9381;54.244;10.074;2022-10-16T12:25:39;5.33;;;1.53;;
18503;SDS011;9381;54.244;10.074;2022-10-16T12:30:53;16.00;;;2.57;;
18503;SDS011;9381;54.244;10.074;2022-10-16T12:35:55;9.77;;;2.30;;
18503;SDS011;9381;54.244;10.074;2022-10-16T12:40:59;10.53;;;2.27;;
18503;SDS011;9381;54.244;10.074;2022-10-16T13:02:06;8.23;;;1.90;;
18503;SDS011;9381;54.244;10.074;2022-10-16T13:13:30;8.70;;;2.13;;
18503;SDS011;9381;54.244;10.074;2022-10-16T13:23:15;12.80;;;2.63;;
18503;SDS011;9381;54.244;10.074;2022-10-16T13:28:35;13.30;;;1.90;;
18503;SDS011;9381;54.244;10.074;2022-10-16T13:33:42;9.63;;;2.20;;
18503;SDS011;9381;54.244;10.074;2022-10-16T13:38:45;5.03;;;1.93;;
18503;SDS011;9381;54.244;10.074;2022-10-16T13:43:49;8.52;;;1.88;;
18503;SDS011;9381;54.244;10.074;2022-10-16T13:54:25;10.63;;;2.40;;
18503;SDS011;9381;54.244;10.074;2022-10-16T13:59:35;12.40;;;1.80;;
18503;SDS011;9381;54.244;10.074;2022-10-16T14:04:38;9.13;;;1.87;;
18503;SDS011;9381;54.244;10.074;2022-10-16T14:09:39;9.50;;;2.07;;
18503;SDS011;9381;54.244;10.074;2022-10-16T14:14:43;17.47;;;2.50;;
18503;SDS011;9381;54.244;10.074;2022-10-16T14:19:46;10.23;;;2.33;;
18503;SDS011;9381;54.244;10.074;2022-10-16T14:24:51;9.97;;;2.20;;
18503;SDS011;9381;54.244;10.074;2022-10-16T14:30:03;11.43;;;2.35;;
18503;SDS011;9381;54.244;10.074;2022-10-16T14:35:25;9.43;;;2.10;;
18503;SDS011;9381;54.244;10.074;2022-10-16T14:40:29;8.40;;;2.20;;
18503;SDS011;9381;54.244;10.074;2022-10-16T14:45:32;9.93;;;1.70;;
18503;SDS011;9381;54.244;10.074;2022-10-16T14:50:35;9.13;;;2.07;;
18503;SDS011;9381;54.244;10.074;2022-10-16T14:55:36;11.33;;;2.07;;
18503;SDS011;9381;54.244;10.074;2022-10-16T15:00:37;9.60;;;2.20;;
18503;SDS011;9381;54.244;10.074;2022-10-16T15:05:37;7.35;;;2.08;;
18503;SDS011;9381;54.244;10.074;2022-10-16T15:10:39;12.17;;;2.07;;
18503;SDS011;9381;54.244;10.074;2022-10-16T15:15:44;11.00;;;2.23;;
18503;SDS011;9381;54.244;10.074;2022-10-16T15:20:47;9.60;;;2.17;;
18503;SDS011;9381;54.244;10.074;2022-10-16T15:25:50;11.30;;;2.40;;
18503;SDS011;9381;54.244;10.074;2022-10-16T15:30:55;13.57;;;3.30;;
18503;SDS011;9381;54.244;10.074;2022-10-16T15:35:56;7.93;;;2.50;;
18503;SDS011;9381;54.244;10.074;2022-10-16T15:40:56;14.53;;;3.00;;
18503;SDS011;9381;54.244;10.074;2022-10-16T15:46:01;13.97;;;2.87;;
18503;SDS011;9381;54.244;10.074;2022-10-16T15:51:04;16.30;;;2.77;;
18503;SDS011;9381;54.244;10.074;2022-10-16T15:56:06;13.17;;;2.87;;
18503;SDS011;9381;54.244;10.074;2022-10-16T16:01:08;15.80;;;3.07;;
18503;SDS011;9381;54.244;10.074;2022-10-16T16:06:10;13.63;;;3.70;;
18503;SDS011;9381;54.244;10.074;2022-10-16T16:11:15;25.03;;;4.40;;
18503;SDS011;9381;54.244;10.074;2022-10-16T16:16:16;17.87;;;4.23;;
18503;SDS011;9381;54.244;10.074;2022-10-16T16:21:17;20.77;;;3.80;;
18503;SDS011;9381;54.244;10.074;2022-10-16T16:26:28;15.50;;;3.30;;
18503;SDS011;9381;54.244;10.074;2022-10-16T16:31:35;18.53;;;3.23;;
18503;SDS011;9381;54.244;10.074;2022-10-16T16:36:36;14.23;;;3.10;;
18503;SDS011;9381;54.244;10.074;2022-10-16T16:41:36;20.80;;;3.77;;
18503;SDS011;9381;54.244;10.074;2022-10-16T16:46:37;17.07;;;2.93;;
18503;SDS011;9381;54.244;10.074;2022-10-16T16:51:39;17.57;;;3.77;;
18503;SDS011;9381;54.244;10.074;2022-10-16T16:56:40;11.43;;;3.40;;
18503;SDS011;9381;54.244;10.074;2022-10-16T17:01:43;21.73;;;4.33;;
18503;SDS011;9381;54.244;10.074;2022-10-16T17:06:43;16.73;;;4.07;;
18503;SDS011;9381;54.244;10.074;2022-10-16T17:11:43;18.00;;;3.42;;
18503;SDS011;9381;54.244;10.074;2022-10-16T17:16:44;20.30;;;3.40;;
18503;SDS011;9381;54.244;10.074;2022-10-16T17:21:47;20.10;;;3.60;;
18503;SDS011;9381;54.244;10.074;2022-10-16T17:26:49;16.87;;;4.20;;
18503;SDS011;9381;54.244;10.074;2022-10-16T17:31:49;15.60;;;3.70;;
18503;SDS011;9381;54.244;10.074;2022-10-16T17:36:50;27.50;;;5.13;;
18503;SDS011;9381;54.244;10.074;2022-10-16T17:41:50;21.25;;;4.47;;
18503;SDS011;9381;54.244;10.074;2022-10-16T17:46:51;21.37;;;3.80;;
18503;SDS011;9381;54.244;10.074;2022-10-16T17:51:52;23.33;;;4.37;;
18503;SDS011;9381;54.244;10.074;2022-10-16T17:56:53;16.80;;;3.60;;
18503;SDS011;9381;54.244;10.074;2022-10-16T18:01:53;21.25;;;3.78;;
18503;SDS011;9381;54.244;10.074;2022-10-16T18:06:53;28.90;;;4.72;;
18503;SDS011;9381;54.244;10.074;2022-10-16T18:11:59;21.67;;;4.37;;
18503;SDS011;9381;54.244;10.074;2022-10-16T18:16:59;16.13;;;3.40;;
18503;SDS011;9381;54.244;10.074;2022-10-16T18:22:00;18.67;;;3.40;;
18503;SDS011;9381;54.244;10.074;2022-10-16T18:27:00;12.57;;;3.60;;
18503;SDS011;9381;54.244;10.074;2022-10-16T18:32:00;14.15;;;2.90;;
18503;SDS011;9381;54.244;10.074;2022-10-16T18:37:01;19.30;;;3.90;;
18503;SDS011;9381;54.244;10.074;2022-10-16T18:42:01;21.83;;;4.40;;
18503;SDS011;9381;54.244;10.074;2022-10-16T18:47:01;20.55;;;4.25;;
18503;SDS011;9381;54.244;10.074;2022-10-16T18:52:02;20.80;;;4.43;;
18503;SDS011;9381;54.244;10.074;2022-10-16T18:57:02;18.70;;;4.57;;
18503;SDS011;9381;54.244;10.074;2022-10-16T19:02:03;18.13;;;3.53;;
18503;SDS011;9381;54.244;10.074;2022-10-16T19:07:03;17.95;;;4.43;;
18503;SDS011;9381;54.244;10.074;2022-10-16T19:12:03;19.80;;;4.70;;
18503;SDS011;9381;54.244;10.074;2022-10-16T19:17:04;23.00;;;5.27;;
18503;SDS011;9381;54.244;10.074;2022-10-16T19:22:04;17.55;;;4.63;;
18503;SDS011;9381;54.244;10.074;2022-10-16T19:27:12;16.23;;;4.20;;
18503;SDS011;9381;54.244;10.074;2022-10-16T19:32:13;17.73;;;4.15;;
18503;SDS011;9381;54.244;10.074;2022-10-16T19:37:13;17.50;;;3.87;;
18503;SDS011;9381;54.244;10.074;2022-10-16T19:42:13;14.65;;;3.47;;
18503;SDS011;9381;54.244;10.074;2022-10-16T19:47:14;15.82;;;3.95;;
18503;SDS011;9381;54.244;10.074;2022-10-16T19:52:14;14.43;;;4.72;;
18503;SDS011;9381;54.244;10.074;2022-10-16T19:57:15;13.03;;;4.33;;
18503;SDS011;9381;54.244;10.074;2022-10-16T20:02:16;17.65;;;4.72;;
18503;SDS011;9381;54.244;10.074;2022-10-16T20:07:16;17.98;;;5.25;;
18503;SDS011;9381;54.244;10.074;2022-10-16T20:12:16;19.17;;;4.68;;
18503;SDS011;9381;54.244;10.074;2022-10-16T20:17:17;17.57;;;5.30;;
18503;SDS011;9381;54.244;10.074;2022-10-16T20:22:17;17.48;;;5.57;;
18503;SDS011;9381;54.244;10.074;2022-10-16T20:27:17;14.60;;;5.22;;
18503;SDS011;9381;54.244;10.074;2022-10-16T20:32:18;17.63;;;5.22;;
18503;SDS011;9381;54.244;10.074;2022-10-16T20:37:18;19.98;;;5.82;;
18503;SDS011;9381;54.244;10.074;2022-10-16T20:42:18;15.63;;;4.35;;
18503;SDS011;9381;54.244;10.074;2022-10-16T20:47:18;17.83;;;5.33;;
18503;SDS011;9381;54.244;10.074;2022-10-16T20:52:19;19.35;;;5.38;;
18503;SDS011;9381;54.244;10.074;2022-10-16T20:57:19;18.88;;;4.60;;
18503;SDS011;9381;54.244;10.074;2022-10-16T21:02:20;13.35;;;4.90;;
18503;SDS011;9381;54.244;10.074;2022-10-16T21:07:20;19.50;;;5.73;;
18503;SDS011;9381;54.244;10.074;2022-10-16T21:12:21;19.35;;;6.97;;
18503;SDS011;9381;54.244;10.074;2022-10-16T21:17:22;17.90;;;5.37;;
18503;SDS011;9381;54.244;10.074;2022-10-16T21:22:27;14.65;;;5.10;;
18503;SDS011;9381;54.244;10.074;2022-10-16T21:27:28;17.60;;;4.50;;
18503;SDS011;9381;54.244;10.074;2022-10-16T21:32:28;15.82;;;4.38;;
18503;SDS011;9381;54.244;10.074;2022-10-16T21:37:28;18.52;;;4.70;;
18503;SDS011;9381;54.244;10.074;2022-10-16T21:42:29;24.00;;;5.47;;
18503;SDS011;9381;54.244;10.074;2022-10-16T21:47:29;14.63;;;4.38;;
18503;SDS011;9381;54.244;10.074;2022-10-16T21:52:29;11.20;;;3.60;;
18503;SDS011;9381;54.244;10.074;2022-10-16T21:57:30;21.50;;;3.67;;
18503;SDS011;9381;54.244;10.074;2022-10-16T22:02:30;16.77;;;3.73;;
18503;SDS011;9381;54.244;10.074;2022-10-16T22:07:30;12.50;;;3.38;;
18503;SDS011;9381;54.244;10.074;2022-10-16T22:12:31;15.93;;;4.20;;
18503;SDS011;9381;54.244;10.074;2022-10-16T22:17:31;17.77;;;3.80;;
18503;SDS011;9381;54.244;10.074;2022-10-16T22:22:31;16.60;;;3.28;;
18503;SDS011;9381;54.244;10.074;2022-10-16T22:27:31;20.60;;;3.83;;
18503;SDS011;9381;54.244;10.074;2022-10-16T22:32:32;14.98;;;3.50;;
18503;SDS011;9381;54.244;10.074;2022-10-16T22:37:32;12.20;;;3.00;;
18503;SDS011;9381;54.244;10.074;2022-10-16T22:42:32;15.73;;;3.00;;
18503;SDS011;9381;54.244;10.074;2022-10-16T22:47:32;9.30;;;3.10;;
18503;SDS011;9381;54.244;10.074;2022-10-16T22:52:33;16.10;;;3.55;;
18503;SDS011;9381;54.244;10.074;2022-10-16T22:57:33;14.53;;;3.53;;
18503;SDS011;9381;54.244;10.074;2022-10-16T23:02:34;14.43;;;3.25;;
18503;SDS011;9381;54.244;10.074;2022-10-16T23:07:34;19.23;;;4.07;;
18503;SDS011;9381;54.244;10.074;2022-10-16T23:12:35;17.37;;;3.47;;
18503;SDS011;9381;54.244;10.074;2022-10-16T23:17:35;16.23;;;3.30;;
18503;SDS011;9381;54.244;10.074;2022-10-16T23:22:35;18.05;;;3.40;;
18503;SDS011;9381;54.244;10.074;2022-10-16T23:27:36;19.95;;;3.88;;
18503;SDS011;9381;54.244;10.074;2022-10-16T23:32:36;20.02;;;3.95;;
18503;SDS011;9381;54.244;10.074;2022-10-16T23:37:36;16.13;;;3.20;;
18503;SDS011;9381;54.244;10.074;2022-10-16T23:42:36;19.27;;;3.80;;
18503;SDS011;9381;54.244;10.074;2022-10-16T23:47:37;19.48;;;3.53;;
18503;SDS011;9381;54.244;10.074;2022-10-16T23:52:37;9.77;;;2.90;;
18503;SDS011;9381;54.244;10.074;2022-10-16T23:57:37;20.00;;;2.72;;
